20U

Beach Airport

Beach, North Dakota, USA
METAR K20U 181115Z AUTO 17006KT 10SM CLR 01/M00 A3012 RMK AO2
Observed Flight Rules
Oct-18 @ 11:15 UTC (15 minutes ago) Visual Flight Rules
Wind Visibility Clouds
170° at 6 knots 10 miles
  • Clear skies
Temperatures Readings
Current 1°C / 34°F
Dewpoint 0°C / 32°F
Humidity 93%
Altimeter 30.12" Hg
Pressure 1020 hPa
Elevation 840
METAR K20U 181115Z AUTO 17006KT 10SM CLR 01/M00 A3012 RMK AO2
Observed Flight Rules
Oct-18 @ 11:15 UTC
(15 minutes ago)
VFR
Wind Visibility
170° at 6 knots 10 miles
Clouds
  • Clear skies
Temperature Dewpoint
1°C / 34°F 0°C / 32°F
Humidity Altimeter Pressure
93% 30.12" Hg 1020 hPa